createdAt,value
2018-10-09T00:01:05.724Z,10.27
2018-10-09T00:07:00.755Z,9.23
2018-10-09T00:12:55.743Z,10.21
2018-10-09T00:18:50.778Z,10.02
2018-10-09T00:24:45.757Z,8.84
2018-10-09T00:30:40.777Z,9.47
2018-10-09T00:36:35.766Z,9.56
2018-10-09T00:42:30.770Z,9.49
2018-10-09T00:48:25.820Z,8.72
2018-10-09T00:54:20.781Z,9.74
2018-10-09T01:00:15.830Z,8.92
2018-10-09T01:06:10.791Z,8.66
2018-10-09T01:12:05.811Z,8.63
2018-10-09T01:18:00.810Z,9.04
2018-10-09T01:23:55.841Z,9.38
2018-10-09T01:29:50.816Z,8.98
2018-10-09T01:35:45.807Z,9.28
2018-10-09T01:41:40.834Z,8.63
2018-10-09T01:47:35.808Z,8.9
2018-10-09T01:53:30.839Z,8.84
2018-10-09T01:59:25.856Z,7.69
2018-10-09T02:05:20.835Z,6.66
2018-10-09T02:11:15.936Z,7.18
2018-10-09T02:17:10.870Z,6.71
2018-10-09T02:23:05.887Z,6.73
2018-10-09T02:29:00.888Z,8.84
2018-10-09T02:34:55.922Z,6.76
2018-10-09T02:40:50.908Z,6.85
2018-10-09T02:46:45.889Z,8.16
2018-10-09T02:52:40.879Z,11.12
2018-10-09T02:58:35.904Z,11.64
2018-10-09T03:04:30.879Z,12.28
2018-10-09T03:10:25.901Z,12.47
2018-10-09T03:16:20.912Z,12.24
2018-10-09T03:22:15.912Z,11.44
2018-10-09T03:28:10.917Z,11.49
2018-10-09T03:34:05.928Z,12.25
2018-10-09T03:40:00.935Z,12.96
2018-10-09T03:45:56.016Z,11.53
2018-10-09T03:51:50.956Z,9.2
2018-10-09T03:57:45.939Z,8.01
2018-10-09T04:03:40.932Z,7.26
2018-10-09T04:09:36.076Z,6.15
2018-10-09T04:15:30.958Z,6.65
2018-10-09T04:21:25.965Z,6.49
2018-10-09T04:27:20.957Z,6.13
2018-10-09T04:33:15.973Z,6.23
2018-10-09T04:39:10.968Z,5.9
2018-10-09T04:45:05.979Z,5.09
2018-10-09T04:51:01.001Z,4.89
2018-10-09T04:56:55.990Z,4.75
2018-10-09T05:02:51.001Z,5.22
2018-10-09T05:08:46.003Z,5.13
2018-10-09T05:14:41.022Z,4.54
2018-10-09T05:20:36.005Z,5.57
2018-10-09T05:26:31.035Z,4.87
2018-10-09T05:32:26.066Z,6.93
2018-10-09T05:38:21.042Z,7.48
2018-10-09T05:44:16.092Z,7.4
2018-10-09T05:50:11.047Z,6.72
2018-10-09T05:56:06.063Z,7.5
2018-10-09T06:02:01.058Z,8.38
2018-10-09T06:07:56.131Z,11.69
2018-10-09T06:13:51.137Z,10.91
2018-10-09T06:19:46.120Z,12.21
2018-10-09T06:25:41.066Z,12.75
2018-10-09T06:31:36.072Z,14.67
2018-10-09T06:37:31.087Z,14.21
2018-10-09T06:43:26.173Z,16.55
2018-10-09T06:49:21.129Z,14.91
2018-10-09T06:55:16.139Z,14.86
2018-10-09T07:01:11.132Z,14.07
2018-10-09T07:07:06.139Z,14.58
2018-10-09T07:13:01.192Z,14.51
2018-10-09T07:18:56.115Z,13.88
2018-10-09T07:24:51.148Z,14.73
2018-10-09T07:30:46.138Z,15.71
2018-10-09T07:36:41.167Z,15.03
2018-10-09T07:42:36.207Z,12.58
2018-10-09T07:48:31.168Z,11.62
2018-10-09T07:54:26.166Z,8.57
2018-10-09T08:00:21.198Z,7.83
2018-10-09T08:06:16.238Z,5.52
2018-10-09T08:12:11.191Z,5.57
2018-10-09T08:18:06.176Z,4.84
2018-10-09T08:24:01.206Z,5.79
2018-10-09T08:29:56.189Z,5.41
2018-10-09T08:35:51.205Z,5.65
2018-10-09T08:41:46.229Z,5.55
2018-10-09T08:47:41.234Z,6.04
2018-10-09T08:53:36.300Z,5
2018-10-09T08:59:31.243Z,5.88
2018-10-09T09:05:26.234Z,5.71
2018-10-09T09:11:21.234Z,5.84
2018-10-09T09:17:16.255Z,4.94
2018-10-09T09:23:11.220Z,5.1
2018-10-09T09:29:06.270Z,5.33
2018-10-09T09:35:01.286Z,5.79
2018-10-09T09:40:56.313Z,4.92
2018-10-09T09:46:51.321Z,5.48
2018-10-09T09:52:46.292Z,5.53
2018-10-09T09:58:41.470Z,5.44
2018-10-09T10:04:36.278Z,5.66
2018-10-09T10:10:31.308Z,5.5
2018-10-09T10:16:26.301Z,5.17
2018-10-09T10:22:21.288Z,7.57
2018-10-09T10:28:16.381Z,6.14
2018-10-09T10:34:11.327Z,5.28
2018-10-09T10:40:06.312Z,5.04
2018-10-09T10:46:01.333Z,4.85
2018-10-09T10:51:56.321Z,4.71
2018-10-09T10:57:51.352Z,4.88
2018-10-09T11:03:46.341Z,8.06
2018-10-09T11:09:41.357Z,6.14
2018-10-09T11:15:36.362Z,5.12
2018-10-09T11:21:31.417Z,6.47
2018-10-09T11:27:26.360Z,5.51
2018-10-09T11:33:21.397Z,4.99
2018-10-09T11:39:16.384Z,5.79
2018-10-09T11:45:11.464Z,4.83
2018-10-09T11:51:06.404Z,4.75
2018-10-09T11:57:01.403Z,5.84
2018-10-09T12:02:56.499Z,5.01
2018-10-09T12:08:51.524Z,5.1
2018-10-09T12:14:46.417Z,5.11
2018-10-09T12:20:41.431Z,4.87
2018-10-09T12:26:36.428Z,5.34
2018-10-09T12:32:31.437Z,5.86
2018-10-09T12:38:26.506Z,5.1
2018-10-09T12:44:21.541Z,5.23
2018-10-09T12:50:16.464Z,4.89
2018-10-09T12:56:11.456Z,5.65
2018-10-09T13:02:06.451Z,6.23
2018-10-09T13:08:01.457Z,5.32
2018-10-09T13:13:56.493Z,6.32
2018-10-09T13:19:51.481Z,5.4
2018-10-09T13:25:46.497Z,4.69
2018-10-09T13:31:41.503Z,4.65
2018-10-09T13:37:36.513Z,4.35
2018-10-09T13:43:31.531Z,5.25
2018-10-09T13:49:26.500Z,4.7
2018-10-09T13:55:21.554Z,4.56
2018-10-09T14:01:16.525Z,5
2018-10-09T14:07:11.539Z,5.17
2018-10-09T14:13:06.537Z,4.77
2018-10-09T14:19:01.553Z,4.61
2018-10-09T14:24:56.560Z,4.57
2018-10-09T14:30:51.548Z,4.58
2018-10-09T14:36:46.560Z,4.48
2018-10-09T14:42:41.563Z,4.61
2018-10-09T14:48:36.602Z,5.04
2018-10-09T14:54:31.589Z,5.07
2018-10-09T15:00:26.630Z,4.25
2018-10-09T15:06:21.579Z,9.03
2018-10-09T15:12:16.656Z,5.75
2018-10-09T15:18:11.616Z,5.22
2018-10-09T15:24:06.638Z,5.03
2018-10-09T15:30:01.615Z,5.42
2018-10-09T15:35:56.604Z,6.01
2018-10-09T15:41:51.617Z,5.49
2018-10-09T15:47:46.604Z,5.37
2018-10-09T15:53:41.644Z,5.71
2018-10-09T15:59:36.654Z,5.97
2018-10-09T16:05:31.647Z,6.55
2018-10-09T16:11:26.633Z,6.12
2018-10-09T16:17:21.641Z,6.67
2018-10-09T16:23:16.666Z,5.97
2018-10-09T16:29:11.722Z,6.71
2018-10-09T16:35:06.670Z,6.53
2018-10-09T16:41:01.673Z,7.02
2018-10-09T16:46:56.671Z,6.99
2018-10-09T16:52:51.720Z,6.88
2018-10-09T16:58:46.699Z,6.93
2018-10-09T17:04:41.704Z,7.27
2018-10-09T17:10:36.699Z,6.71
2018-10-09T17:16:31.735Z,6.88
2018-10-09T17:22:26.796Z,6.46
2018-10-09T17:28:21.780Z,6.86
2018-10-09T17:34:16.739Z,7.6
2018-10-09T17:40:11.721Z,7.31
2018-10-09T17:46:06.780Z,7.8
2018-10-09T17:52:01.775Z,7.68
2018-10-09T17:57:56.762Z,7.51
2018-10-09T18:03:51.783Z,8.84
2018-10-09T18:09:46.759Z,8.44
2018-10-09T18:15:41.886Z,8.56
2018-10-09T18:21:36.758Z,8.62
2018-10-09T18:27:31.797Z,8.92
2018-10-09T18:33:26.782Z,9.17
2018-10-09T18:39:21.808Z,8.96
2018-10-09T18:45:16.810Z,8.4
2018-10-09T18:51:11.797Z,10.06
2018-10-09T18:57:06.807Z,9.49
